sensor_id;sensor_type;location;lat;lon;timestamp;pressure;altitude;pressure_sealevel;temperature;humidity
24868;BME280;12941;48.698;9.310;2023-11-21T00:00:41;97320;;;14.3;70.838
24868;BME280;12941;48.698;9.310;2023-11-21T00:01:41;97322.5;;;14.32;70.764
24868;BME280;12941;48.698;9.310;2023-11-21T00:02:46;97321.40000000001;;;14.34;70.768
24868;BME280;12941;48.698;9.310;2023-11-21T00:03:51;97323.1;;;14.35;70.683
24868;BME280;12941;48.698;9.310;2023-11-21T00:04:51;97325.59999999999;;;14.35;70.878
24868;BME280;12941;48.698;9.310;2023-11-21T00:05:51;97321.2;;;14.37;70.675
24868;BME280;12941;48.698;9.310;2023-11-21T00:06:51;97324.7;;;14.36;70.554
24868;BME280;12941;48.698;9.310;2023-11-21T00:07:56;97323.90000000001;;;14.36;70.455
24868;BME280;12941;48.698;9.310;2023-11-21T00:08:56;97321.3;;;14.36;70.606
24868;BME280;12941;48.698;9.310;2023-11-21T00:10:01;97312.8;;;14.35;70.455
24868;BME280;12941;48.698;9.310;2023-11-21T00:11:01;97315.5;;;14.34;70.397
24868;BME280;12941;48.698;9.310;2023-11-21T00:12:06;97320.7;;;14.32;70.277
24868;BME280;12941;48.698;9.310;2023-11-21T00:13:06;97317.6;;;14.29;70.152
24868;BME280;12941;48.698;9.310;2023-11-21T00:14:11;97316.09999999999;;;14.26;70.256
24868;BME280;12941;48.698;9.310;2023-11-21T00:15:16;97320.5;;;14.24;70.491
24868;BME280;12941;48.698;9.310;2023-11-21T00:16:16;97315.59999999999;;;14.21;70.271
24868;BME280;12941;48.698;9.310;2023-11-21T00:17:21;97315;;;14.18;70.264
24868;BME280;12941;48.698;9.310;2023-11-21T00:18:21;97313.5;;;14.15;70.292
24868;BME280;12941;48.698;9.310;2023-11-21T00:19:26;97317;;;14.14;70.487
24868;BME280;12941;48.698;9.310;2023-11-21T00:20:31;97311.2;;;14.12;70.808
24868;BME280;12941;48.698;9.310;2023-11-21T00:21:31;97306.8;;;14.12;70.991
24868;BME280;12941;48.698;9.310;2023-11-21T00:22:31;97306;;;14.12;71.165
24868;BME280;12941;48.698;9.310;2023-11-21T00:23:36;97304.4;;;14.11;71.195
24868;BME280;12941;48.698;9.310;2023-11-21T00:24:36;97301.9;;;14.09;70.675
24868;BME280;12941;48.698;9.310;2023-11-21T00:25:36;97299.5;;;14.08;70.757
24868;BME280;12941;48.698;9.310;2023-11-21T00:26:38;97301.3;;;14.06;70.548
24868;BME280;12941;48.698;9.310;2023-11-21T00:27:41;97303.2;;;14.04;70.718
24868;BME280;12941;48.698;9.310;2023-11-21T00:28:41;97300.9;;;14.01;70.811
24868;BME280;12941;48.698;9.310;2023-11-21T00:29:41;97303.8;;;13.96;70.966
24868;BME280;12941;48.698;9.310;2023-11-21T00:30:46;97301.59999999999;;;13.92;71.402
24868;BME280;12941;48.698;9.310;2023-11-21T00:31:46;97305.5;;;13.86;71.47
24868;BME280;12941;48.698;9.310;2023-11-21T00:32:51;97305.9;;;13.8;72.443
24868;BME280;12941;48.698;9.310;2023-11-21T00:33:51;97301;;;13.77;72.602
24868;BME280;12941;48.698;9.310;2023-11-21T00:34:51;97302;;;13.76;72.599
24868;BME280;12941;48.698;9.310;2023-11-21T00:35:51;97301.4;;;13.72;71.955
24868;BME280;12941;48.698;9.310;2023-11-21T00:36:57;97304.2;;;13.69;71.626
24868;BME280;12941;48.698;9.310;2023-11-21T00:38:01;97302.5;;;13.68;71.636
24868;BME280;12941;48.698;9.310;2023-11-21T00:39:06;97297.40000000001;;;13.68;71.711
24868;BME280;12941;48.698;9.310;2023-11-21T00:40:07;97306;;;13.67;71.309
24868;BME280;12941;48.698;9.310;2023-11-21T00:41:06;97299.3;;;13.66;70.842
24868;BME280;12941;48.698;9.310;2023-11-21T00:42:07;97300.2;;;13.65;71.132
24868;BME280;12941;48.698;9.310;2023-11-21T00:43:11;97296;;;13.64;71.401
24868;BME280;12941;48.698;9.310;2023-11-21T00:44:16;97297.2;;;13.6;70.865
24868;BME280;12941;48.698;9.310;2023-11-21T00:45:21;97297.7;;;13.53;71.199
24868;BME280;12941;48.698;9.310;2023-11-21T00:46:21;97302.4;;;13.48;71.58
24868;BME280;12941;48.698;9.310;2023-11-21T00:47:27;97299.3;;;13.44;72.124
24868;BME280;12941;48.698;9.310;2023-11-21T00:48:31;97297.1;;;13.38;72.18
24868;BME280;12941;48.698;9.310;2023-11-21T00:49:36;97298.1;;;13.37;72.632
24868;BME280;12941;48.698;9.310;2023-11-21T00:50:36;97296.5;;;13.34;72.789
24868;BME280;12941;48.698;9.310;2023-11-21T00:51:37;97301.8;;;13.33;73.177
24868;BME280;12941;48.698;9.310;2023-11-21T00:52:41;97296.90000000001;;;13.3;73.409
24868;BME280;12941;48.698;9.310;2023-11-21T00:53:41;97296.90000000001;;;13.3;73.313
24868;BME280;12941;48.698;9.310;2023-11-21T00:54:46;97294.6;;;13.27;73.405
24868;BME280;12941;48.698;9.310;2023-11-21T00:55:46;97296.3;;;13.26;73.792
24868;BME280;12941;48.698;9.310;2023-11-21T00:56:47;97291.3;;;13.25;73.877
24868;BME280;12941;48.698;9.310;2023-11-21T00:57:51;97292.9;;;13.26;73.813
24868;BME280;12941;48.698;9.310;2023-11-21T00:58:51;97294.8;;;13.24;73.755
24868;BME280;12941;48.698;9.310;2023-11-21T00:59:56;97300;;;13.24;73.646
24868;BME280;12941;48.698;9.310;2023-11-21T01:01:01;97305;;;13.25;73.834
24868;BME280;12941;48.698;9.310;2023-11-21T01:02:06;97298.2;;;13.24;73.659
24868;BME280;12941;48.698;9.310;2023-11-21T01:03:07;97288;;;13.23;73.731
24868;BME280;12941;48.698;9.310;2023-11-21T01:04:11;97295.8;;;13.21;73.761
24868;BME280;12941;48.698;9.310;2023-11-21T01:05:11;97302.3;;;13.16;73.785
24868;BME280;12941;48.698;9.310;2023-11-21T01:06:16;97299;;;13.13;73.921
24868;BME280;12941;48.698;9.310;2023-11-21T01:07:21;97297.5;;;13.09;74.206
24868;BME280;12941;48.698;9.310;2023-11-21T01:08:21;97298.7;;;13.05;74.448
24868;BME280;12941;48.698;9.310;2023-11-21T01:09:21;97302.4;;;13.01;74.753
24868;BME280;12941;48.698;9.310;2023-11-21T01:10:21;97302.5;;;13;74.74
24868;BME280;12941;48.698;9.310;2023-11-21T01:11:21;97303.59999999999;;;12.97;74.639
24868;BME280;12941;48.698;9.310;2023-11-21T01:12:26;97307.2;;;12.95;74.722
24868;BME280;12941;48.698;9.310;2023-11-21T01:13:26;97297.2;;;12.92;74.759
24868;BME280;12941;48.698;9.310;2023-11-21T01:14:31;97301.59999999999;;;12.9;74.992
24868;BME280;12941;48.698;9.310;2023-11-21T01:15:37;97298.2;;;12.89;74.915
24868;BME280;12941;48.698;9.310;2023-11-21T01:16:37;97301.70000000001;;;12.88;75.175
24868;BME280;12941;48.698;9.310;2023-11-21T01:17:41;97296.6;;;12.88;75.52
24868;BME280;12941;48.698;9.310;2023-11-21T01:18:41;97298.90000000001;;;12.91;75.544
24868;BME280;12941;48.698;9.310;2023-11-21T01:19:46;97297.79999999999;;;12.95;75.175
24868;BME280;12941;48.698;9.310;2023-11-21T01:20:47;97308.8;;;12.97;75.146
24868;BME280;12941;48.698;9.310;2023-11-21T01:21:47;97301.9;;;12.98;75.156
24868;BME280;12941;48.698;9.310;2023-11-21T01:22:47;97300.2;;;12.97;75.027
24868;BME280;12941;48.698;9.310;2023-11-21T01:23:51;97305.1;;;13;75.086
24868;BME280;12941;48.698;9.310;2023-11-21T01:24:52;97300.8;;;13;74.924
24868;BME280;12941;48.698;9.310;2023-11-21T01:25:57;97304.9;;;13.03;74.961
24868;BME280;12941;48.698;9.310;2023-11-21T01:26:57;97301.4;;;13.04;75.157
24868;BME280;12941;48.698;9.310;2023-11-21T01:28:01;97300.3;;;13.06;74.913
24868;BME280;12941;48.698;9.310;2023-11-21T01:29:01;97303.7;;;13.07;75.086
24868;BME280;12941;48.698;9.310;2023-11-21T01:30:02;97300.3;;;13.06;75
24868;BME280;12941;48.698;9.310;2023-11-21T01:31:07;97309.2;;;13.02;75.132
24868;BME280;12941;48.698;9.310;2023-11-21T01:32:07;97300.8;;;13;75.054
24868;BME280;12941;48.698;9.310;2023-11-21T01:33:07;97309.5;;;12.99;75.041
24868;BME280;12941;48.698;9.310;2023-11-21T01:34:11;97292.4;;;12.98;75.535
24868;BME280;12941;48.698;9.310;2023-11-21T01:35:11;97293.4;;;12.96;75.358
24868;BME280;12941;48.698;9.310;2023-11-21T01:36:11;97291;;;12.94;75.346
24868;BME280;12941;48.698;9.310;2023-11-21T01:37:11;97298.7;;;12.94;75.562
24868;BME280;12941;48.698;9.310;2023-11-21T01:38:17;97290.20000000001;;;12.94;75.646
24868;BME280;12941;48.698;9.310;2023-11-21T01:39:21;97296.1;;;12.94;75.702
24868;BME280;12941;48.698;9.310;2023-11-21T01:40:22;97296.1;;;12.94;76.004
24868;BME280;12941;48.698;9.310;2023-11-21T01:41:27;97292.8;;;12.92;76.324
24868;BME280;12941;48.698;9.310;2023-11-21T01:42:31;97287.7;;;12.92;76.442
24868;BME280;12941;48.698;9.310;2023-11-21T01:43:32;97292.1;;;12.9;76.666
24868;BME280;12941;48.698;9.310;2023-11-21T01:44:32;97286.3;;;12.88;76.425
24868;BME280;12941;48.698;9.310;2023-11-21T01:45:32;97284.7;;;12.86;76.409
24868;BME280;12941;48.698;9.310;2023-11-21T01:46:37;97283.4;;;12.8;76.162
24868;BME280;12941;48.698;9.310;2023-11-21T01:47:42;97284.3;;;12.81;76.087
24868;BME280;12941;48.698;9.310;2023-11-21T01:48:42;97281.7;;;12.81;76.335
24868;BME280;12941;48.698;9.310;2023-11-21T01:49:47;97279.9;;;12.81;76.251
24868;BME280;12941;48.698;9.310;2023-11-21T01:50:52;97278.09999999999;;;12.83;76.113
24868;BME280;12941;48.698;9.310;2023-11-21T01:51:57;97286.5;;;12.85;76.397
24868;BME280;12941;48.698;9.310;2023-11-21T01:52:57;97281.1;;;12.88;76.544
24868;BME280;12941;48.698;9.310;2023-11-21T01:54:02;97288.4;;;12.94;76.306
24868;BME280;12941;48.698;9.310;2023-11-21T01:55:02;97285.79999999999;;;12.94;75.065
24868;BME280;12941;48.698;9.310;2023-11-21T01:56:02;97292.6;;;12.95;74.852
24868;BME280;12941;48.698;9.310;2023-11-21T01:57:07;97281.5;;;12.95;74.905
24868;BME280;12941;48.698;9.310;2023-11-21T01:58:07;97286.40000000001;;;12.98;75.06
24868;BME280;12941;48.698;9.310;2023-11-21T01:59:07;97290.5;;;13;74.806
24868;BME280;12941;48.698;9.310;2023-11-21T02:00:12;97285.29999999999;;;13;74.644
24868;BME280;12941;48.698;9.310;2023-11-21T02:01:12;97293.2;;;12.99;74.318
24868;BME280;12941;48.698;9.310;2023-11-21T02:02:17;97292.6;;;12.95;74.172
24868;BME280;12941;48.698;9.310;2023-11-21T02:03:22;97287.2;;;12.98;73.713
24868;BME280;12941;48.698;9.310;2023-11-21T02:04:22;97295;;;12.98;73.961
24868;BME280;12941;48.698;9.310;2023-11-21T02:05:27;97301.5;;;13.02;73.978
24868;BME280;12941;48.698;9.310;2023-11-21T02:06:27;97298;;;13.03;73.959
24868;BME280;12941;48.698;9.310;2023-11-21T02:07:32;97292.6;;;13.06;74.05
24868;BME280;12941;48.698;9.310;2023-11-21T02:08:37;97291.5;;;13.1;73.905
24868;BME280;12941;48.698;9.310;2023-11-21T02:09:37;97293.1;;;13.11;73.184
24868;BME280;12941;48.698;9.310;2023-11-21T02:10:42;97289.59999999999;;;13.12;73.132
24868;BME280;12941;48.698;9.310;2023-11-21T02:11:42;97289.8;;;13.09;73.159
24868;BME280;12941;48.698;9.310;2023-11-21T02:12:47;97291.5;;;13.1;73.431
24868;BME280;12941;48.698;9.310;2023-11-21T02:13:47;97288.2;;;13.08;73.136
24868;BME280;12941;48.698;9.310;2023-11-21T02:14:52;97286.5;;;13.07;73.167
24868;BME280;12941;48.698;9.310;2023-11-21T02:15:57;97291.7;;;13.07;73.588
24868;BME280;12941;48.698;9.310;2023-11-21T02:16:57;97296.6;;;13.1;73.646
24868;BME280;12941;48.698;9.310;2023-11-21T02:18:02;97295.8;;;13.1;73.332
24868;BME280;12941;48.698;9.310;2023-11-21T02:19:07;97294.7;;;13.12;73.045
24868;BME280;12941;48.698;9.310;2023-11-21T02:20:12;97292.3;;;13.11;72.568
24868;BME280;12941;48.698;9.310;2023-11-21T02:21:17;97291.3;;;13.12;72.752
24868;BME280;12941;48.698;9.310;2023-11-21T02:22:22;97286.1;;;13.13;73.068
24868;BME280;12941;48.698;9.310;2023-11-21T02:23:22;97285.2;;;13.15;72.8
24868;BME280;12941;48.698;9.310;2023-11-21T02:24:22;97285.90000000001;;;13.17;72.792
24868;BME280;12941;48.698;9.310;2023-11-21T02:25:22;97288;;;13.11;72.126
24868;BME280;12941;48.698;9.310;2023-11-21T02:26:27;97290.59999999999;;;13.1;72.273
24868;BME280;12941;48.698;9.310;2023-11-21T02:27:32;97290.59999999999;;;13.1;72.079
24868;BME280;12941;48.698;9.310;2023-11-21T02:28:37;97286.3;;;13.1;72.135
24868;BME280;12941;48.698;9.310;2023-11-21T02:29:37;97281.2;;;13.1;72.416
24868;BME280;12941;48.698;9.310;2023-11-21T02:30:37;97291.5;;;13.1;72.696
24868;BME280;12941;48.698;9.310;2023-11-21T02:31:37;97282.2;;;13.08;72.313
24868;BME280;12941;48.698;9.310;2023-11-21T02:32:37;97281.4;;;13.07;72.52
24868;BME280;12941;48.698;9.310;2023-11-21T02:33:42;97275.5;;;13.05;72.505
24868;BME280;12941;48.698;9.310;2023-11-21T02:34:42;97278.09999999999;;;13.05;72.526
24868;BME280;12941;48.698;9.310;2023-11-21T02:35:42;97280.7;;;13.05;72.57
24868;BME280;12941;48.698;9.310;2023-11-21T02:36:42;97284.90000000001;;;13.06;72.896
24868;BME280;12941;48.698;9.310;2023-11-21T02:37:47;97282.3;;;13.06;72.992
24868;BME280;12941;48.698;9.310;2023-11-21T02:38:47;97283;;;13.08;72.888
24868;BME280;12941;48.698;9.310;2023-11-21T02:39:52;97280.3;;;13.1;72.911
24868;BME280;12941;48.698;9.310;2023-11-21T02:40:57;97275.8;;;13.13;73.025
24868;BME280;12941;48.698;9.310;2023-11-21T02:42:02;97274.90000000001;;;13.15;72.94
24868;BME280;12941;48.698;9.310;2023-11-21T02:43:02;97279.1;;;13.16;72.781
24868;BME280;12941;48.698;9.310;2023-11-21T02:44:07;97278.9;;;13.19;72.299
24868;BME280;12941;48.698;9.310;2023-11-21T02:45:12;97275.40000000001;;;13.2;72.259
24868;BME280;12941;48.698;9.310;2023-11-21T02:46:12;97282.2;;;13.21;72.39
24868;BME280;12941;48.698;9.310;2023-11-21T02:47:17;97272.79999999999;;;13.2;71.956
24868;BME280;12941;48.698;9.310;2023-11-21T02:48:17;97275.40000000001;;;13.2;72.063
24868;BME280;12941;48.698;9.310;2023-11-21T02:49:22;97278;;;13.2;71.772
24868;BME280;12941;48.698;9.310;2023-11-21T02:50:27;97272.1;;;13.18;71.693
24868;BME280;12941;48.698;9.310;2023-11-21T02:51:27;97269.8;;;13.13;71.772
24868;BME280;12941;48.698;9.310;2023-11-21T02:52:32;97270.6;;;13.13;72.021
24868;BME280;12941;48.698;9.310;2023-11-21T02:53:32;97275.7;;;13.15;72.164
24868;BME280;12941;48.698;9.310;2023-11-21T02:54:32;97270.5;;;13.15;71.862
24868;BME280;12941;48.698;9.310;2023-11-21T02:55:37;97270.8;;;13.12;71.759
24868;BME280;12941;48.698;9.310;2023-11-21T02:56:37;97272.5;;;13.11;71.942
24868;BME280;12941;48.698;9.310;2023-11-21T02:57:42;97264.8;;;13.11;71.985
24868;BME280;12941;48.698;9.310;2023-11-21T02:58:47;97269.1;;;13.11;71.704
24868;BME280;12941;48.698;9.310;2023-11-21T02:59:47;97267.4;;;13.11;71.855
24868;BME280;12941;48.698;9.310;2023-11-21T03:00:52;97271.8;;;13.09;71.853
24868;BME280;12941;48.698;9.310;2023-11-21T03:01:57;97273.5;;;13.1;72.265
24868;BME280;12941;48.698;9.310;2023-11-21T03:02:57;97268.3;;;13.1;72.351
24868;BME280;12941;48.698;9.310;2023-11-21T03:04:02;97265.7;;;13.1;72.06
24868;BME280;12941;48.698;9.310;2023-11-21T03:05:07;97270.9;;;13.1;72.135
24868;BME280;12941;48.698;9.310;2023-11-21T03:06:12;97267.6;;;13.08;71.884
24868;BME280;12941;48.698;9.310;2023-11-21T03:07:12;97275.40000000001;;;13.07;72.247
24868;BME280;12941;48.698;9.310;2023-11-21T03:08:12;97268.6;;;13.06;72.159
24868;BME280;12941;48.698;9.310;2023-11-21T03:09:17;97272;;;13.06;72.269
24868;BME280;12941;48.698;9.310;2023-11-21T03:10:17;97278.9;;;13.06;71.986
24868;BME280;12941;48.698;9.310;2023-11-21T03:11:22;97274.59999999999;;;13.06;72.193
24868;BME280;12941;48.698;9.310;2023-11-21T03:12:27;97270.5;;;13.04;72.222
24868;BME280;12941;48.698;9.310;2023-11-21T03:13:27;97272.40000000001;;;13.02;72.412
24868;BME280;12941;48.698;9.310;2023-11-21T03:14:32;97269.9;;;13;72.593
24868;BME280;12941;48.698;9.310;2023-11-21T03:15:37;97265;;;12.97;72.448
24868;BME280;12941;48.698;9.310;2023-11-21T03:16:37;97275.3;;;12.97;72.588
24868;BME280;12941;48.698;9.310;2023-11-21T03:17:42;97273.2;;;12.91;72.707
24868;BME280;12941;48.698;9.310;2023-11-21T03:18:42;97272.5;;;12.89;72.758
24868;BME280;12941;48.698;9.310;2023-11-21T03:19:47;97269.2;;;12.87;72.873
24868;BME280;12941;48.698;9.310;2023-11-21T03:20:47;97276.2;;;12.85;72.924
24868;BME280;12941;48.698;9.310;2023-11-21T03:21:52;97276.70000000001;;;12.79;72.635
24868;BME280;12941;48.698;9.310;2023-11-21T03:22:52;97275.7;;;12.8;72.7
24868;BME280;12941;48.698;9.310;2023-11-21T03:23:52;97274.90000000001;;;12.79;72.99
24868;BME280;12941;48.698;9.310;2023-11-21T03:24:52;97276.70000000001;;;12.79;72.947
24868;BME280;12941;48.698;9.310;2023-11-21T03:25:57;97271.5;;;12.79;73.152
24868;BME280;12941;48.698;9.310;2023-11-21T03:26:57;97276.9;;;12.76;73.168
24868;BME280;12941;48.698;9.310;2023-11-21T03:28:02;97275.3;;;12.73;73.175
24868;BME280;12941;48.698;9.310;2023-11-21T03:29:02;97272;;;12.73;73.292
24868;BME280;12941;48.698;9.310;2023-11-21T03:30:08;97279.8;;;12.71;73.247
24868;BME280;12941;48.698;9.310;2023-11-21T03:31:12;97276.3;;;12.72;72.807
24868;BME280;12941;48.698;9.310;2023-11-21T03:32:17;97282.2;;;12.73;73.142
24868;BME280;12941;48.698;9.310;2023-11-21T03:33:17;97272;;;12.73;73.195
24868;BME280;12941;48.698;9.310;2023-11-21T03:34:23;97278.7;;;12.74;73.132
24868;BME280;12941;48.698;9.310;2023-11-21T03:35:22;97277.8;;;12.75;73.091
24868;BME280;12941;48.698;9.310;2023-11-21T03:36:27;97276;;;12.75;73.351
24868;BME280;12941;48.698;9.310;2023-11-21T03:37:27;97276.9;;;12.76;73.523
24868;BME280;12941;48.698;9.310;2023-11-21T03:38:32;97273.40000000001;;;12.77;73.267
24868;BME280;12941;48.698;9.310;2023-11-21T03:39:33;97274.2;;;12.77;73.225
24868;BME280;12941;48.698;9.310;2023-11-21T03:40:33;97286.1;;;12.78;73.248
24868;BME280;12941;48.698;9.310;2023-11-21T03:41:37;97279.2;;;12.79;73.217
24868;BME280;12941;48.698;9.310;2023-11-21T03:42:42;97279.1;;;12.81;73.014
24868;BME280;12941;48.698;9.310;2023-11-21T03:43:47;97274.59999999999;;;12.84;72.804
24868;BME280;12941;48.698;9.310;2023-11-21T03:44:47;97281.4;;;12.85;72.503
24868;BME280;12941;48.698;9.310;2023-11-21T03:45:52;97283.8;;;12.87;72.505
24868;BME280;12941;48.698;9.310;2023-11-21T03:46:53;97276;;;12.88;72.65
24868;BME280;12941;48.698;9.310;2023-11-21T03:47:57;97284.40000000001;;;12.9;72.814
24868;BME280;12941;48.698;9.310;2023-11-21T03:48:57;97275.8;;;12.91;72.609
24868;BME280;12941;48.698;9.310;2023-11-21T03:50:02;97289.4;;;12.92;72.719
24868;BME280;12941;48.698;9.310;2023-11-21T03:51:07;97287.5;;;12.95;72.877
24868;BME280;12941;48.698;9.310;2023-11-21T03:52:07;97279.6;;;12.97;72.729
24868;BME280;12941;48.698;9.310;2023-11-21T03:53:12;97284.5;;;13;72.733
24868;BME280;12941;48.698;9.310;2023-11-21T03:54:17;97284.3;;;13.03;72.598
24868;BME280;12941;48.698;9.310;2023-11-21T03:55:23;97281.6;;;13.04;72.493
24868;BME280;12941;48.698;9.310;2023-11-21T03:56:27;97284.2;;;13.04;72.438
24868;BME280;12941;48.698;9.310;2023-11-21T03:57:33;97284.90000000001;;;13.06;71.999
24868;BME280;12941;48.698;9.310;2023-11-21T03:58:33;97281.5;;;13.06;72.127
24868;BME280;12941;48.698;9.310;2023-11-21T03:59:39;97284.90000000001;;;13.06;72.01
24868;BME280;12941;48.698;9.310;2023-11-21T04:00:43;97286.8;;;13.04;71.813
24868;BME280;12941;48.698;9.310;2023-11-21T04:01:43;97282.9;;;12.99;71.609
24868;BME280;12941;48.698;9.310;2023-11-21T04:02:43;97276.09999999999;;;12.98;71.951
24868;BME280;12941;48.698;9.310;2023-11-21T04:03:48;97282;;;13;72.086
24868;BME280;12941;48.698;9.310;2023-11-21T04:04:47;97278.3;;;13.02;72.478
24868;BME280;12941;48.698;9.310;2023-11-21T04:05:53;97274.8;;;13.03;72.135
24868;BME280;12941;48.698;9.310;2023-11-21T04:06:53;97278.09999999999;;;13.05;72.009
24868;BME280;12941;48.698;9.310;2023-11-21T04:07:53;97273;;;13.05;71.728
24868;BME280;12941;48.698;9.310;2023-11-21T04:08:58;97282.3;;;13.06;71.578
24868;BME280;12941;48.698;9.310;2023-11-21T04:10:03;97276.3;;;13.07;71.623
24868;BME280;12941;48.698;9.310;2023-11-21T04:11:07;97276.3;;;13.07;71.385
24868;BME280;12941;48.698;9.310;2023-11-21T04:12:07;97273.6;;;13.09;71.55
24868;BME280;12941;48.698;9.310;2023-11-21T04:13:13;97280.2;;;13.11;71.51
24868;BME280;12941;48.698;9.310;2023-11-21T04:14:13;97280.9;;;13.13;71.513
24868;BME280;12941;48.698;9.310;2023-11-21T04:15:13;97275.59999999999;;;13.17;71.063
24868;BME280;12941;48.698;9.310;2023-11-21T04:16:17;97277.4;;;13.15;70.888
24868;BME280;12941;48.698;9.310;2023-11-21T04:17:17;97281.7;;;13.16;71.053
24868;BME280;12941;48.698;9.310;2023-11-21T04:18:17;97283.2;;;13.18;71.24
24868;BME280;12941;48.698;9.310;2023-11-21T04:19:17;97281.3;;;13.2;71.579
24868;BME280;12941;48.698;9.310;2023-11-21T04:20:23;97281.9;;;13.24;71.692
24868;BME280;12941;48.698;9.310;2023-11-21T04:21:23;97285.2;;;13.26;71.241
24868;BME280;12941;48.698;9.310;2023-11-21T04:22:23;97278.09999999999;;;13.29;71.323
24868;BME280;12941;48.698;9.310;2023-11-21T04:23:28;97281.4;;;13.31;71.64
24868;BME280;12941;48.698;9.310;2023-11-21T04:24:33;97287.90000000001;;;13.35;71.17
24868;BME280;12941;48.698;9.310;2023-11-21T04:25:33;97288.59999999999;;;13.37;71.271
24868;BME280;12941;48.698;9.310;2023-11-21T04:26:38;97289.20000000001;;;13.41;71.321
24868;BME280;12941;48.698;9.310;2023-11-21T04:27:38;97290.8;;;13.42;71.419
24868;BME280;12941;48.698;9.310;2023-11-21T04:28:43;97284.5;;;13.46;70.896
24868;BME280;12941;48.698;9.310;2023-11-21T04:29:43;97288.7;;;13.47;71.07
24868;BME280;12941;48.698;9.310;2023-11-21T04:30:48;97289.4;;;13.49;71.269
24868;BME280;12941;48.698;9.310;2023-11-21T04:31:53;97287.7;;;13.5;71.118
24868;BME280;12941;48.698;9.310;2023-11-21T04:32:53;97285;;;13.51;71.271
24868;BME280;12941;48.698;9.310;2023-11-21T04:33:57;97278.09999999999;;;13.52;71.219
24868;BME280;12941;48.698;9.310;2023-11-21T04:34:58;97283.1;;;13.53;70.745
24868;BME280;12941;48.698;9.310;2023-11-21T04:36:03;97293.2;;;13.56;71.28
24868;BME280;12941;48.698;9.310;2023-11-21T04:37:08;97293.9;;;13.58;71.014
24868;BME280;12941;48.698;9.310;2023-11-21T04:38:13;97289.5;;;13.6;70.93
24868;BME280;12941;48.698;9.310;2023-11-21T04:39:18;97293.5;;;13.63;70.826
24868;BME280;12941;48.698;9.310;2023-11-21T04:40:18;97292.5;;;13.65;70.808
24868;BME280;12941;48.698;9.310;2023-11-21T04:41:23;97289.9;;;13.65;70.407
24868;BME280;12941;48.698;9.310;2023-11-21T04:42:23;97293.3;;;13.66;69.9
24868;BME280;12941;48.698;9.310;2023-11-21T04:43:23;97294.1;;;13.66;70.182
24868;BME280;12941;48.698;9.310;2023-11-21T04:44:28;97295.8;;;13.67;70.476
24868;BME280;12941;48.698;9.310;2023-11-21T04:45:28;97294.8;;;13.68;70.63
24868;BME280;12941;48.698;9.310;2023-11-21T04:46:33;97299;;;13.69;70.534
24868;BME280;12941;48.698;9.310;2023-11-21T04:47:33;97295.5;;;13.7;70.601
24868;BME280;12941;48.698;9.310;2023-11-21T04:48:38;97297.2;;;13.71;70.699
24868;BME280;12941;48.698;9.310;2023-11-21T04:49:43;97291.09999999999;;;13.72;70.354
24868;BME280;12941;48.698;9.310;2023-11-21T04:50:43;97294.3;;;13.74;70.141
24868;BME280;12941;48.698;9.310;2023-11-21T04:51:48;97293.5;;;13.74;70.085
24868;BME280;12941;48.698;9.310;2023-11-21T04:52:48;97296.90000000001;;;13.74;69.859
24868;BME280;12941;48.698;9.310;2023-11-21T04:53:53;97296.90000000001;;;13.74;69.491
24868;BME280;12941;48.698;9.310;2023-11-21T04:54:58;97294.3;;;13.74;69.697
24868;BME280;12941;48.698;9.310;2023-11-21T04:56:03;97295.3;;;13.73;69.533
24868;BME280;12941;48.698;9.310;2023-11-21T04:57:03;97292.7;;;13.73;69.501
24868;BME280;12941;48.698;9.310;2023-11-21T04:58:08;97295.3;;;13.73;69.403
24868;BME280;12941;48.698;9.310;2023-11-21T04:59:08;97300.40000000001;;;13.73;69.317
24868;BME280;12941;48.698;9.310;2023-11-21T05:00:13;97302.3;;;13.71;68.968
24868;BME280;12941;48.698;9.310;2023-11-21T05:01:18;97299.8;;;13.7;68.51
24868;BME280;12941;48.698;9.310;2023-11-21T05:02:23;97302.8;;;13.65;68.752
24868;BME280;12941;48.698;9.310;2023-11-21T05:03:28;97304.7;;;13.63;68.933
24868;BME280;12941;48.698;9.310;2023-11-21T05:04:33;97304.2;;;13.58;69.012
24868;BME280;12941;48.698;9.310;2023-11-21T05:05:33;97303.5;;;13.56;69.279
24868;BME280;12941;48.698;9.310;2023-11-21T05:06:38;97306.4;;;13.52;69.196
24868;BME280;12941;48.698;9.310;2023-11-21T05:07:43;97312.59999999999;;;13.49;69.462
24868;BME280;12941;48.698;9.310;2023-11-21T05:08:43;97306;;;13.45;69.673
24868;BME280;12941;48.698;9.310;2023-11-21T05:09:48;97311.5;;;13.4;69.806
24868;BME280;12941;48.698;9.310;2023-11-21T05:10:48;97305.1;;;13.35;69.927
24868;BME280;12941;48.698;9.310;2023-11-21T05:11:48;97304.4;;;13.33;70.259
24868;BME280;12941;48.698;9.310;2023-11-21T05:12:53;97304.5;;;13.31;70.256
24868;BME280;12941;48.698;9.310;2023-11-21T05:13:53;97309.7;;;13.31;70.548
24868;BME280;12941;48.698;9.310;2023-11-21T05:14:53;97311.3;;;13.32;70.431
24868;BME280;12941;48.698;9.310;2023-11-21T05:15:58;97314.70000000001;;;13.33;70.432
24868;BME280;12941;48.698;9.310;2023-11-21T05:17:03;97305.1;;;13.35;70.727
24868;BME280;12941;48.698;9.310;2023-11-21T05:18:03;97309.2;;;13.37;71.002
24868;BME280;12941;48.698;9.310;2023-11-21T05:19:08;97319.3;;;13.4;70.941
24868;BME280;12941;48.698;9.310;2023-11-21T05:20:08;97307.9;;;13.43;70.902
24868;BME280;12941;48.698;9.310;2023-11-21T05:21:08;97305.2;;;13.44;70.655
24868;BME280;12941;48.698;9.310;2023-11-21T05:22:13;97307.7;;;13.46;70.853
24868;BME280;12941;48.698;9.310;2023-11-21T05:23:13;97311.7;;;13.5;70.913
24868;BME280;12941;48.698;9.310;2023-11-21T05:24:18;97315.9;;;13.51;70.374
24868;BME280;12941;48.698;9.310;2023-11-21T05:25:18;97315.9;;;13.51;70.136
24868;BME280;12941;48.698;9.310;2023-11-21T05:26:23;97313.3;;;13.51;70.114